sensor_id;sensor_type;location;lat;lon;timestamp;P1;durP1;ratioP1;P2;durP2;ratioP2
45684;SDS011;46836;48.388;16.210;2023-04-15T00:01:51;0.65;;;0.50;;
45684;SDS011;46836;48.388;16.210;2023-04-15T00:04:19;1.52;;;0.60;;
45684;SDS011;46836;48.388;16.210;2023-04-15T00:06:49;0.50;;;0.50;;
45684;SDS011;46836;48.388;16.210;2023-04-15T00:09:18;0.70;;;0.70;;
45684;SDS011;46836;48.388;16.210;2023-04-15T00:11:46;0.50;;;0.50;;
45684;SDS011;46836;48.388;16.210;2023-04-15T00:14:13;1.08;;;1.00;;
45684;SDS011;46836;48.388;16.210;2023-04-15T00:16:40;0.70;;;0.70;;
45684;SDS011;46836;48.388;16.210;2023-04-15T00:19:08;1.40;;;0.50;;
45684;SDS011;46836;48.388;16.210;2023-04-15T00:21:35;0.80;;;0.60;;
45684;SDS011;46836;48.388;16.210;2023-04-15T00:24:02;0.50;;;0.50;;
45684;SDS011;46836;48.388;16.210;2023-04-15T00:26:29;0.55;;;0.55;;
45684;SDS011;46836;48.388;16.210;2023-04-15T00:28:56;0.70;;;0.70;;
45684;SDS011;46836;48.388;16.210;2023-04-15T00:31:24;0.70;;;0.50;;
45684;SDS011;46836;48.388;16.210;2023-04-15T00:33:51;1.45;;;0.85;;
45684;SDS011;46836;48.388;16.210;2023-04-15T00:36:18;0.57;;;0.57;;
45684;SDS011;46836;48.388;16.210;2023-04-15T00:38:45;0.88;;;0.88;;
45684;SDS011;46836;48.388;16.210;2023-04-15T00:41:12;0.90;;;0.90;;
45684;SDS011;46836;48.388;16.210;2023-04-15T00:43:39;0.80;;;0.80;;
45684;SDS011;46836;48.388;16.210;2023-04-15T00:46:07;1.27;;;1.17;;
45684;SDS011;46836;48.388;16.210;2023-04-15T00:48:36;2.55;;;2.20;;
45684;SDS011;46836;48.388;16.210;2023-04-15T00:51:04;2.55;;;2.35;;
45684;SDS011;46836;48.388;16.210;2023-04-15T00:53:32;2.80;;;2.50;;
45684;SDS011;46836;48.388;16.210;2023-04-15T00:55:59;2.80;;;2.60;;
45684;SDS011;46836;48.388;16.210;2023-04-15T00:58:26;2.45;;;2.25;;
45684;SDS011;46836;48.388;16.210;2023-04-15T01:00:54;1.65;;;1.55;;
45684;SDS011;46836;48.388;16.210;2023-04-15T01:03:22;2.10;;;1.88;;
45684;SDS011;46836;48.388;16.210;2023-04-15T01:05:50;1.10;;;1.00;;
45684;SDS011;46836;48.388;16.210;2023-04-15T01:08:27;0.80;;;0.80;;
45684;SDS011;46836;48.388;16.210;2023-04-15T01:10:55;0.57;;;0.57;;
45684;SDS011;46836;48.388;16.210;2023-04-15T01:13:24;0.65;;;0.45;;
45684;SDS011;46836;48.388;16.210;2023-04-15T01:15:52;0.52;;;0.52;;
45684;SDS011;46836;48.388;16.210;2023-04-15T01:18:21;0.40;;;0.40;;
45684;SDS011;46836;48.388;16.210;2023-04-15T01:20:50;0.40;;;0.40;;
45684;SDS011;46836;48.388;16.210;2023-04-15T01:23:17;0.50;;;0.50;;
45684;SDS011;46836;48.388;16.210;2023-04-15T01:25:45;0.75;;;0.60;;
45684;SDS011;46836;48.388;16.210;2023-04-15T01:28:13;0.63;;;0.43;;
45684;SDS011;46836;48.388;16.210;2023-04-15T01:30:40;1.13;;;0.40;;
45684;SDS011;46836;48.388;16.210;2023-04-15T01:33:07;0.52;;;0.52;;
45684;SDS011;46836;48.388;16.210;2023-04-15T01:35:34;0.50;;;0.50;;
45684;SDS011;46836;48.388;16.210;2023-04-15T01:38:05;0.70;;;0.70;;
45684;SDS011;46836;48.388;16.210;2023-04-15T01:40:34;0.80;;;0.80;;
45684;SDS011;46836;48.388;16.210;2023-04-15T01:43:01;0.43;;;0.43;;
45684;SDS011;46836;48.388;16.210;2023-04-15T01:45:29;0.70;;;0.70;;
45684;SDS011;46836;48.388;16.210;2023-04-15T01:47:56;0.50;;;0.50;;
45684;SDS011;46836;48.388;16.210;2023-04-15T01:50:23;0.60;;;0.60;;
45684;SDS011;46836;48.388;16.210;2023-04-15T01:52:51;0.60;;;0.60;;
45684;SDS011;46836;48.388;16.210;2023-04-15T01:55:18;0.60;;;0.60;;
45684;SDS011;46836;48.388;16.210;2023-04-15T01:57:45;0.60;;;0.52;;
45684;SDS011;46836;48.388;16.210;2023-04-15T02:00:13;0.60;;;0.60;;
45684;SDS011;46836;48.388;16.210;2023-04-15T02:02:40;0.75;;;0.75;;
45684;SDS011;46836;48.388;16.210;2023-04-15T02:05:07;0.70;;;0.60;;
45684;SDS011;46836;48.388;16.210;2023-04-15T02:07:35;0.85;;;0.85;;
45684;SDS011;46836;48.388;16.210;2023-04-15T02:10:02;0.98;;;0.98;;
45684;SDS011;46836;48.388;16.210;2023-04-15T02:12:30;1.05;;;1.05;;
45684;SDS011;46836;48.388;16.210;2023-04-15T02:14:56;1.92;;;0.80;;
45684;SDS011;46836;48.388;16.210;2023-04-15T02:17:24;0.70;;;0.70;;
45684;SDS011;46836;48.388;16.210;2023-04-15T02:19:51;0.88;;;0.88;;
45684;SDS011;46836;48.388;16.210;2023-04-15T02:22:18;0.82;;;0.82;;
45684;SDS011;46836;48.388;16.210;2023-04-15T02:24:46;1.15;;;0.93;;
45684;SDS011;46836;48.388;16.210;2023-04-15T02:27:16;0.80;;;0.80;;
45684;SDS011;46836;48.388;16.210;2023-04-15T02:29:44;0.90;;;0.90;;
45684;SDS011;46836;48.388;16.210;2023-04-15T02:32:11;0.95;;;0.95;;
45684;SDS011;46836;48.388;16.210;2023-04-15T02:34:39;0.93;;;0.93;;
45684;SDS011;46836;48.388;16.210;2023-04-15T02:37:08;0.90;;;0.85;;
45684;SDS011;46836;48.388;16.210;2023-04-15T02:39:36;0.90;;;0.88;;
45684;SDS011;46836;48.388;16.210;2023-04-15T02:42:04;0.70;;;0.65;;
45684;SDS011;46836;48.388;16.210;2023-04-15T02:44:34;0.65;;;0.65;;
45684;SDS011;46836;48.388;16.210;2023-04-15T02:47:01;0.70;;;0.70;;
45684;SDS011;46836;48.388;16.210;2023-04-15T02:49:30;1.98;;;0.70;;
45684;SDS011;46836;48.388;16.210;2023-04-15T02:51:57;0.50;;;0.50;;
45684;SDS011;46836;48.388;16.210;2023-04-15T02:54:25;1.20;;;0.70;;
45684;SDS011;46836;48.388;16.210;2023-04-15T02:56:55;0.70;;;0.70;;
45684;SDS011;46836;48.388;16.210;2023-04-15T02:59:22;0.60;;;0.60;;
45684;SDS011;46836;48.388;16.210;2023-04-15T03:01:49;1.50;;;0.80;;
45684;SDS011;46836;48.388;16.210;2023-04-15T03:04:17;0.60;;;0.60;;
45684;SDS011;46836;48.388;16.210;2023-04-15T03:06:44;0.90;;;0.90;;
45684;SDS011;46836;48.388;16.210;2023-04-15T03:09:11;0.68;;;0.68;;
45684;SDS011;46836;48.388;16.210;2023-04-15T03:11:38;0.65;;;0.65;;
45684;SDS011;46836;48.388;16.210;2023-04-15T03:14:07;0.50;;;0.50;;
45684;SDS011;46836;48.388;16.210;2023-04-15T03:16:34;0.52;;;0.52;;
45684;SDS011;46836;48.388;16.210;2023-04-15T03:19:01;0.73;;;0.73;;
45684;SDS011;46836;48.388;16.210;2023-04-15T03:21:29;1.88;;;0.57;;
45684;SDS011;46836;48.388;16.210;2023-04-15T03:23:56;0.52;;;0.52;;
45684;SDS011;46836;48.388;16.210;2023-04-15T03:26:29;0.50;;;0.50;;
45684;SDS011;46836;48.388;16.210;2023-04-15T03:28:57;0.55;;;0.55;;
45684;SDS011;46836;48.388;16.210;2023-04-15T03:31:24;0.40;;;0.40;;
45684;SDS011;46836;48.388;16.210;2023-04-15T03:33:51;0.55;;;0.55;;
45684;SDS011;46836;48.388;16.210;2023-04-15T03:36:18;1.90;;;1.02;;
45684;SDS011;46836;48.388;16.210;2023-04-15T03:38:46;0.50;;;0.50;;
45684;SDS011;46836;48.388;16.210;2023-04-15T03:41:13;0.55;;;0.55;;
45684;SDS011;46836;48.388;16.210;2023-04-15T03:43:40;0.40;;;0.40;;
45684;SDS011;46836;48.388;16.210;2023-04-15T03:46:07;0.50;;;0.50;;
45684;SDS011;46836;48.388;16.210;2023-04-15T03:48:34;0.68;;;0.68;;
45684;SDS011;46836;48.388;16.210;2023-04-15T03:51:01;0.50;;;0.50;;
45684;SDS011;46836;48.388;16.210;2023-04-15T03:53:28;0.50;;;0.50;;
45684;SDS011;46836;48.388;16.210;2023-04-15T03:55:55;0.50;;;0.50;;
45684;SDS011;46836;48.388;16.210;2023-04-15T03:58:22;0.50;;;0.50;;
45684;SDS011;46836;48.388;16.210;2023-04-15T04:00:49;0.40;;;0.40;;
45684;SDS011;46836;48.388;16.210;2023-04-15T04:03:16;0.50;;;0.50;;
45684;SDS011;46836;48.388;16.210;2023-04-15T04:05:44;0.47;;;0.47;;
45684;SDS011;46836;48.388;16.210;2023-04-15T04:08:11;0.50;;;0.50;;
45684;SDS011;46836;48.388;16.210;2023-04-15T04:10:41;0.40;;;0.30;;
45684;SDS011;46836;48.388;16.210;2023-04-15T04:13:08;0.60;;;0.60;;
45684;SDS011;46836;48.388;16.210;2023-04-15T04:15:35;0.50;;;0.50;;
45684;SDS011;46836;48.388;16.210;2023-04-15T04:18:03;0.40;;;0.30;;
45684;SDS011;46836;48.388;16.210;2023-04-15T04:20:30;0.40;;;0.40;;
45684;SDS011;46836;48.388;16.210;2023-04-15T04:22:57;0.38;;;0.38;;
45684;SDS011;46836;48.388;16.210;2023-04-15T04:25:24;0.80;;;0.35;;
45684;SDS011;46836;48.388;16.210;2023-04-15T04:27:51;0.40;;;0.38;;
45684;SDS011;46836;48.388;16.210;2023-04-15T04:30:18;0.73;;;0.40;;
45684;SDS011;46836;48.388;16.210;2023-04-15T04:32:46;0.40;;;0.30;;
45684;SDS011;46836;48.388;16.210;2023-04-15T04:35:13;0.40;;;0.40;;
45684;SDS011;46836;48.388;16.210;2023-04-15T04:37:40;0.40;;;0.30;;
45684;SDS011;46836;48.388;16.210;2023-04-15T04:40:07;0.50;;;0.40;;
45684;SDS011;46836;48.388;16.210;2023-04-15T04:42:34;0.40;;;0.30;;
45684;SDS011;46836;48.388;16.210;2023-04-15T04:45:05;0.30;;;0.30;;
45684;SDS011;46836;48.388;16.210;2023-04-15T04:47:32;0.40;;;0.30;;
45684;SDS011;46836;48.388;16.210;2023-04-15T04:49:59;0.30;;;0.30;;
45684;SDS011;46836;48.388;16.210;2023-04-15T04:52:26;0.30;;;0.30;;
45684;SDS011;46836;48.388;16.210;2023-04-15T04:54:53;0.30;;;0.30;;
45684;SDS011;46836;48.388;16.210;2023-04-15T04:57:20;0.43;;;0.30;;
45684;SDS011;46836;48.388;16.210;2023-04-15T04:59:47;0.30;;;0.30;;
45684;SDS011;46836;48.388;16.210;2023-04-15T05:02:14;0.30;;;0.30;;
45684;SDS011;46836;48.388;16.210;2023-04-15T05:04:42;0.95;;;0.30;;
45684;SDS011;46836;48.388;16.210;2023-04-15T05:07:09;0.40;;;0.30;;
45684;SDS011;46836;48.388;16.210;2023-04-15T05:09:36;0.47;;;0.35;;
45684;SDS011;46836;48.388;16.210;2023-04-15T05:12:03;0.38;;;0.32;;
45684;SDS011;46836;48.388;16.210;2023-04-15T05:14:30;0.40;;;0.30;;
45684;SDS011;46836;48.388;16.210;2023-04-15T05:16:58;0.30;;;0.30;;
45684;SDS011;46836;48.388;16.210;2023-04-15T05:19:25;0.32;;;0.32;;
45684;SDS011;46836;48.388;16.210;2023-04-15T05:21:52;0.30;;;0.30;;
45684;SDS011;46836;48.388;16.210;2023-04-15T05:24:19;0.47;;;0.30;;
45684;SDS011;46836;48.388;16.210;2023-04-15T05:26:46;0.90;;;0.50;;
45684;SDS011;46836;48.388;16.210;2023-04-15T05:29:13;0.50;;;0.40;;
45684;SDS011;46836;48.388;16.210;2023-04-15T05:31:40;0.30;;;0.30;;
45684;SDS011;46836;48.388;16.210;2023-04-15T05:34:08;1.75;;;0.40;;
45684;SDS011;46836;48.388;16.210;2023-04-15T05:36:37;0.90;;;0.30;;
45684;SDS011;46836;48.388;16.210;2023-04-15T05:39:04;0.50;;;0.30;;
45684;SDS011;46836;48.388;16.210;2023-04-15T05:41:31;0.40;;;0.40;;
45684;SDS011;46836;48.388;16.210;2023-04-15T05:43:58;1.40;;;0.40;;
45684;SDS011;46836;48.388;16.210;2023-04-15T05:46:25;1.30;;;0.43;;
45684;SDS011;46836;48.388;16.210;2023-04-15T05:48:53;0.40;;;0.30;;
45684;SDS011;46836;48.388;16.210;2023-04-15T05:51:22;0.30;;;0.20;;
45684;SDS011;46836;48.388;16.210;2023-04-15T05:53:49;0.40;;;0.30;;
45684;SDS011;46836;48.388;16.210;2023-04-15T05:56:16;0.40;;;0.30;;
45684;SDS011;46836;48.388;16.210;2023-04-15T05:58:43;0.60;;;0.30;;
45684;SDS011;46836;48.388;16.210;2023-04-15T06:01:10;0.40;;;0.40;;
45684;SDS011;46836;48.388;16.210;2023-04-15T06:03:37;0.40;;;0.30;;
45684;SDS011;46836;48.388;16.210;2023-04-15T06:06:05;0.40;;;0.40;;
45684;SDS011;46836;48.388;16.210;2023-04-15T06:08:33;0.40;;;0.40;;
45684;SDS011;46836;48.388;16.210;2023-04-15T06:11:00;0.60;;;0.60;;
45684;SDS011;46836;48.388;16.210;2023-04-15T06:13:27;1.88;;;1.27;;
45684;SDS011;46836;48.388;16.210;2023-04-15T06:15:54;1.23;;;1.13;;
45684;SDS011;46836;48.388;16.210;2023-04-15T06:18:21;0.40;;;0.30;;
45684;SDS011;46836;48.388;16.210;2023-04-15T06:20:48;0.30;;;0.30;;
45684;SDS011;46836;48.388;16.210;2023-04-15T06:23:17;0.50;;;0.40;;
45684;SDS011;46836;48.388;16.210;2023-04-15T06:25:43;0.50;;;0.30;;
45684;SDS011;46836;48.388;16.210;2023-04-15T06:28:11;1.30;;;0.30;;
45684;SDS011;46836;48.388;16.210;2023-04-15T06:30:38;0.65;;;0.30;;
45684;SDS011;46836;48.388;16.210;2023-04-15T06:33:06;0.40;;;0.40;;
45684;SDS011;46836;48.388;16.210;2023-04-15T06:35:33;0.80;;;0.40;;
45684;SDS011;46836;48.388;16.210;2023-04-15T06:38:00;1.30;;;0.30;;
45684;SDS011;46836;48.388;16.210;2023-04-15T06:40:27;0.50;;;0.50;;
45684;SDS011;46836;48.388;16.210;2023-04-15T06:42:54;0.55;;;0.40;;
45684;SDS011;46836;48.388;16.210;2023-04-15T06:45:22;0.50;;;0.50;;
45684;SDS011;46836;48.388;16.210;2023-04-15T06:47:49;0.45;;;0.40;;
45684;SDS011;46836;48.388;16.210;2023-04-15T06:50:16;0.40;;;0.40;;
45684;SDS011;46836;48.388;16.210;2023-04-15T06:52:43;0.52;;;0.40;;
45684;SDS011;46836;48.388;16.210;2023-04-15T06:55:11;0.77;;;0.65;;
45684;SDS011;46836;48.388;16.210;2023-04-15T06:57:38;0.68;;;0.50;;
45684;SDS011;46836;48.388;16.210;2023-04-15T07:00:05;1.58;;;0.57;;
45684;SDS011;46836;48.388;16.210;2023-04-15T07:02:33;1.42;;;0.90;;
45684;SDS011;46836;48.388;16.210;2023-04-15T07:05:00;2.30;;;1.20;;
45684;SDS011;46836;48.388;16.210;2023-04-15T07:07:27;1.25;;;0.50;;
45684;SDS011;46836;48.388;16.210;2023-04-15T07:09:54;0.50;;;0.40;;
45684;SDS011;46836;48.388;16.210;2023-04-15T07:12:21;0.88;;;0.75;;
45684;SDS011;46836;48.388;16.210;2023-04-15T07:14:48;0.40;;;0.40;;
45684;SDS011;46836;48.388;16.210;2023-04-15T07:17:15;0.60;;;0.50;;
45684;SDS011;46836;48.388;16.210;2023-04-15T07:19:43;0.80;;;0.68;;
45684;SDS011;46836;48.388;16.210;2023-04-15T07:22:10;0.50;;;0.50;;
45684;SDS011;46836;48.388;16.210;2023-04-15T07:24:37;0.40;;;0.40;;
45684;SDS011;46836;48.388;16.210;2023-04-15T07:27:04;0.40;;;0.40;;
45684;SDS011;46836;48.388;16.210;2023-04-15T07:29:31;0.70;;;0.70;;
45684;SDS011;46836;48.388;16.210;2023-04-15T07:31:58;0.60;;;0.50;;
45684;SDS011;46836;48.388;16.210;2023-04-15T07:34:25;0.60;;;0.50;;
45684;SDS011;46836;48.388;16.210;2023-04-15T07:36:52;0.40;;;0.30;;
45684;SDS011;46836;48.388;16.210;2023-04-15T07:39:19;0.47;;;0.30;;
45684;SDS011;46836;48.388;16.210;2023-04-15T07:41:46;0.40;;;0.30;;
45684;SDS011;46836;48.388;16.210;2023-04-15T07:44:14;0.50;;;0.50;;
45684;SDS011;46836;48.388;16.210;2023-04-15T07:46:42;0.65;;;0.40;;
45684;SDS011;46836;48.388;16.210;2023-04-15T07:49:09;0.40;;;0.32;;
45684;SDS011;46836;48.388;16.210;2023-04-15T07:51:36;0.50;;;0.30;;
45684;SDS011;46836;48.388;16.210;2023-04-15T07:54:03;0.40;;;0.40;;
45684;SDS011;46836;48.388;16.210;2023-04-15T07:56:30;0.45;;;0.45;;
45684;SDS011;46836;48.388;16.210;2023-04-15T07:58:58;0.60;;;0.45;;
45684;SDS011;46836;48.388;16.210;2023-04-15T08:01:27;1.17;;;0.60;;
45684;SDS011;46836;48.388;16.210;2023-04-15T08:03:54;0.68;;;0.52;;
45684;SDS011;46836;48.388;16.210;2023-04-15T08:06:22;0.40;;;0.30;;
45684;SDS011;46836;48.388;16.210;2023-04-15T08:08:49;0.43;;;0.43;;
45684;SDS011;46836;48.388;16.210;2023-04-15T08:11:17;0.50;;;0.50;;
45684;SDS011;46836;48.388;16.210;2023-04-15T08:13:44;0.40;;;0.32;;
45684;SDS011;46836;48.388;16.210;2023-04-15T08:18:53;0.55;;;0.50;;
45684;SDS011;46836;48.388;16.210;2023-04-15T08:21:21;0.50;;;0.50;;
45684;SDS011;46836;48.388;16.210;2023-04-15T08:23:49;0.88;;;0.70;;
45684;SDS011;46836;48.388;16.210;2023-04-15T08:26:18;0.70;;;0.70;;
45684;SDS011;46836;48.388;16.210;2023-04-15T08:28:46;0.50;;;0.50;;
45684;SDS011;46836;48.388;16.210;2023-04-15T08:31:15;0.60;;;0.60;;
45684;SDS011;46836;48.388;16.210;2023-04-15T08:33:43;0.40;;;0.40;;
45684;SDS011;46836;48.388;16.210;2023-04-15T08:36:11;1.00;;;0.52;;
45684;SDS011;46836;48.388;16.210;2023-04-15T08:38:39;0.40;;;0.40;;
45684;SDS011;46836;48.388;16.210;2023-04-15T08:41:08;1.63;;;0.73;;
45684;SDS011;46836;48.388;16.210;2023-04-15T08:43:45;0.57;;;0.40;;
45684;SDS011;46836;48.388;16.210;2023-04-15T08:46:17;1.70;;;0.60;;
45684;SDS011;46836;48.388;16.210;2023-04-15T08:48:46;1.77;;;0.80;;
45684;SDS011;46836;48.388;16.210;2023-04-15T08:51:15;0.60;;;0.60;;
45684;SDS011;46836;48.388;16.210;2023-04-15T08:53:43;0.40;;;0.40;;
45684;SDS011;46836;48.388;16.210;2023-04-15T08:56:13;0.70;;;0.55;;
45684;SDS011;46836;48.388;16.210;2023-04-15T08:58:44;0.40;;;0.40;;
45684;SDS011;46836;48.388;16.210;2023-04-15T09:01:12;0.60;;;0.50;;
45684;SDS011;46836;48.388;16.210;2023-04-15T09:03:39;0.40;;;0.40;;
45684;SDS011;46836;48.388;16.210;2023-04-15T09:06:08;0.60;;;0.40;;
45684;SDS011;46836;48.388;16.210;2023-04-15T09:08:35;0.60;;;0.50;;
45684;SDS011;46836;48.388;16.210;2023-04-15T09:11:02;0.70;;;0.65;;
45684;SDS011;46836;48.388;16.210;2023-04-15T09:13:30;0.50;;;0.38;;
45684;SDS011;46836;48.388;16.210;2023-04-15T09:15:57;0.68;;;0.60;;
45684;SDS011;46836;48.388;16.210;2023-04-15T09:18:27;1.02;;;0.60;;
45684;SDS011;46836;48.388;16.210;2023-04-15T09:21:09;2.25;;;0.40;;
45684;SDS011;46836;48.388;16.210;2023-04-15T09:23:52;0.55;;;0.55;;
45684;SDS011;46836;48.388;16.210;2023-04-15T09:26:34;0.80;;;0.70;;
45684;SDS011;46836;48.388;16.210;2023-04-15T09:29:07;0.60;;;0.40;;
45684;SDS011;46836;48.388;16.210;2023-04-15T09:31:39;1.30;;;0.93;;
45684;SDS011;46836;48.388;16.210;2023-04-15T09:34:07;0.50;;;0.50;;
45684;SDS011;46836;48.388;16.210;2023-04-15T09:36:40;1.13;;;0.60;;
45684;SDS011;46836;48.388;16.210;2023-04-15T09:39:19;0.60;;;0.60;;
45684;SDS011;46836;48.388;16.210;2023-04-15T09:41:51;1.02;;;0.60;;
45684;SDS011;46836;48.388;16.210;2023-04-15T09:44:32;0.60;;;0.60;;
45684;SDS011;46836;48.388;16.210;2023-04-15T09:46:59;0.50;;;0.50;;
45684;SDS011;46836;48.388;16.210;2023-04-15T09:49:27;0.90;;;0.68;;
45684;SDS011;46836;48.388;16.210;2023-04-15T09:52:00;0.63;;;0.55;;
45684;SDS011;46836;48.388;16.210;2023-04-15T09:54:32;0.70;;;0.50;;
45684;SDS011;46836;48.388;16.210;2023-04-15T09:57:05;0.47;;;0.40;;
45684;SDS011;46836;48.388;16.210;2023-04-15T09:59:36;0.47;;;0.47;;
45684;SDS011;46836;48.388;16.210;2023-04-15T10:02:03;0.40;;;0.40;;
45684;SDS011;46836;48.388;16.210;2023-04-15T10:04:34;0.90;;;0.68;;
45684;SDS011;46836;48.388;16.210;2023-04-15T10:07:05;0.93;;;0.70;;
45684;SDS011;46836;48.388;16.210;2023-04-15T10:09:37;0.60;;;0.60;;
45684;SDS011;46836;48.388;16.210;2023-04-15T10:12:05;0.68;;;0.68;;
45684;SDS011;46836;48.388;16.210;2023-04-15T10:14:35;1.08;;;0.85;;
45684;SDS011;46836;48.388;16.210;2023-04-15T10:17:04;0.73;;;0.60;;
45684;SDS011;46836;48.388;16.210;2023-04-15T10:19:35;0.50;;;0.50;;
45684;SDS011;46836;48.388;16.210;2023-04-15T10:22:03;1.13;;;0.60;;
45684;SDS011;46836;48.388;16.210;2023-04-15T10:24:30;1.95;;;1.08;;
45684;SDS011;46836;48.388;16.210;2023-04-15T10:26:58;1.15;;;0.90;;
45684;SDS011;46836;48.388;16.210;2023-04-15T10:29:26;2.55;;;1.02;;
45684;SDS011;46836;48.388;16.210;2023-04-15T10:31:58;1.58;;;1.20;;
45684;SDS011;46836;48.388;16.210;2023-04-15T10:34:26;2.38;;;1.20;;
45684;SDS011;46836;48.388;16.210;2023-04-15T10:36:55;1.33;;;1.23;;
45684;SDS011;46836;48.388;16.210;2023-04-15T10:42:10;2.38;;;1.90;;
45684;SDS011;46836;48.388;16.210;2023-04-15T10:44:40;1.00;;;0.98;;
45684;SDS011;46836;48.388;16.210;2023-04-15T10:47:10;1.60;;;1.25;;
45684;SDS011;46836;48.388;16.210;2023-04-15T10:49:45;1.90;;;1.45;;
45684;SDS011;46836;48.388;16.210;2023-04-15T10:52:17;2.10;;;1.30;;
45684;SDS011;46836;48.388;16.210;2023-04-15T10:54:48;1.10;;;1.00;;
45684;SDS011;46836;48.388;16.210;2023-04-15T10:57:20;1.15;;;1.02;;
45684;SDS011;46836;48.388;16.210;2023-04-15T11:02:44;0.82;;;0.82;;
45684;SDS011;46836;48.388;16.210;2023-04-15T11:05:14;1.90;;;1.02;;
45684;SDS011;46836;48.388;16.210;2023-04-15T11:12:47;0.68;;;0.68;;
45684;SDS011;46836;48.388;16.210;2023-04-15T11:18:12;2.55;;;1.15;;
45684;SDS011;46836;48.388;16.210;2023-04-15T11:20:50;1.63;;;0.70;;
45684;SDS011;46836;48.388;16.210;2023-04-15T11:23:39;0.70;;;0.63;;
45684;SDS011;46836;48.388;16.210;2023-04-15T11:26:14;1.30;;;0.70;;
45684;SDS011;46836;48.388;16.210;2023-04-15T11:28:42;0.70;;;0.70;;
45684;SDS011;46836;48.388;16.210;2023-04-15T11:31:12;0.70;;;0.70;;
45684;SDS011;46836;48.388;16.210;2023-04-15T11:33:44;0.90;;;0.90;;
45684;SDS011;46836;48.388;16.210;2023-04-15T11:36:19;0.70;;;0.70;;
45684;SDS011;46836;48.388;16.210;2023-04-15T11:38:46;0.60;;;0.60;;
45684;SDS011;46836;48.388;16.210;2023-04-15T11:41:13;1.63;;;1.48;;
45684;SDS011;46836;48.388;16.210;2023-04-15T11:43:41;1.88;;;1.67;;
45684;SDS011;46836;48.388;16.210;2023-04-15T11:46:08;0.75;;;0.75;;
45684;SDS011;46836;48.388;16.210;2023-04-15T11:48:36;0.80;;;0.77;;
45684;SDS011;46836;48.388;16.210;2023-04-15T11:51:07;1.20;;;0.50;;
45684;SDS011;46836;48.388;16.210;2023-04-15T11:56:07;1.23;;;1.05;;
45684;SDS011;46836;48.388;16.210;2023-04-15T11:58:35;0.80;;;0.80;;
45684;SDS011;46836;48.388;16.210;2023-04-15T12:01:04;0.85;;;0.70;;
45684;SDS011;46836;48.388;16.210;2023-04-15T12:03:39;1.20;;;1.05;;
45684;SDS011;46836;48.388;16.210;2023-04-15T12:08:59;1.20;;;1.00;;
45684;SDS011;46836;48.388;16.210;2023-04-15T12:14:31;1.00;;;0.90;;
45684;SDS011;46836;48.388;16.210;2023-04-15T12:16:59;0.63;;;0.63;;
45684;SDS011;46836;48.388;16.210;2023-04-15T12:19:29;0.77;;;0.77;;
45684;SDS011;46836;48.388;16.210;2023-04-15T12:22:05;1.02;;;0.88;;
45684;SDS011;46836;48.388;16.210;2023-04-15T12:24:36;0.70;;;0.70;;
45684;SDS011;46836;48.388;16.210;2023-04-15T12:27:14;0.90;;;0.90;;
45684;SDS011;46836;48.388;16.210;2023-04-15T12:29:42;0.75;;;0.75;;
45684;SDS011;46836;48.388;16.210;2023-04-15T12:32:14;3.22;;;0.90;;
45684;SDS011;46836;48.388;16.210;2023-04-15T12:34:52;1.60;;;0.98;;
45684;SDS011;46836;48.388;16.210;2023-04-15T12:37:20;0.85;;;0.80;;
45684;SDS011;46836;48.388;16.210;2023-04-15T12:39:48;0.80;;;0.80;;
45684;SDS011;46836;48.388;16.210;2023-04-15T12:42:16;1.10;;;1.00;;
45684;SDS011;46836;48.388;16.210;2023-04-15T12:44:43;0.80;;;0.80;;
45684;SDS011;46836;48.388;16.210;2023-04-15T12:47:11;1.10;;;1.00;;
45684;SDS011;46836;48.388;16.210;2023-04-15T12:49:38;1.17;;;1.00;;
45684;SDS011;46836;48.388;16.210;2023-04-15T12:52:06;1.33;;;1.20;;
45684;SDS011;46836;48.388;16.210;2023-04-15T12:54:34;1.10;;;1.00;;
45684;SDS011;46836;48.388;16.210;2023-04-15T12:57:02;1.02;;;0.93;;
45684;SDS011;46836;48.388;16.210;2023-04-15T12:59:32;2.70;;;1.15;;
45684;SDS011;46836;48.388;16.210;2023-04-15T13:01:59;1.00;;;1.00;;
45684;SDS011;46836;48.388;16.210;2023-04-15T13:04:28;1.52;;;1.10;;
45684;SDS011;46836;48.388;16.210;2023-04-15T13:06:58;1.10;;;1.00;;
45684;SDS011;46836;48.388;16.210;2023-04-15T13:09:26;4.85;;;1.20;;
45684;SDS011;46836;48.388;16.210;2023-04-15T13:11:54;1.20;;;1.02;;
45684;SDS011;46836;48.388;16.210;2023-04-15T13:14:22;1.05;;;1.05;;
45684;SDS011;46836;48.388;16.210;2023-04-15T13:16:50;1.27;;;1.17;;
45684;SDS011;46836;48.388;16.210;2023-04-15T13:19:17;1.13;;;1.02;;
45684;SDS011;46836;48.388;16.210;2023-04-15T13:21:44;1.50;;;1.40;;
45684;SDS011;46836;48.388;16.210;2023-04-15T13:24:11;1.35;;;1.25;;
45684;SDS011;46836;48.388;16.210;2023-04-15T13:26:38;1.17;;;1.08;;
45684;SDS011;46836;48.388;16.210;2023-04-15T13:29:05;1.25;;;1.10;;
45684;SDS011;46836;48.388;16.210;2023-04-15T13:31:32;1.20;;;1.10;;
45684;SDS011;46836;48.388;16.210;2023-04-15T13:33:59;1.08;;;0.98;;
45684;SDS011;46836;48.388;16.210;2023-04-15T13:36:27;1.20;;;1.10;;
45684;SDS011;46836;48.388;16.210;2023-04-15T13:38:54;1.20;;;1.10;;
45684;SDS011;46836;48.388;16.210;2023-04-15T13:41:21;1.00;;;0.93;;
45684;SDS011;46836;48.388;16.210;2023-04-15T13:43:48;0.90;;;0.90;;
45684;SDS011;46836;48.388;16.210;2023-04-15T13:46:15;1.00;;;1.00;;
45684;SDS011;46836;48.388;16.210;2023-04-15T13:48:42;2.15;;;1.27;;
45684;SDS011;46836;48.388;16.210;2023-04-15T13:51:10;1.58;;;1.48;;
45684;SDS011;46836;48.388;16.210;2023-04-15T13:53:37;1.40;;;1.30;;
45684;SDS011;46836;48.388;16.210;2023-04-15T13:56:05;1.10;;;1.00;;
45684;SDS011;46836;48.388;16.210;2023-04-15T13:58:34;2.17;;;1.35;;
45684;SDS011;46836;48.388;16.210;2023-04-15T14:01:02;1.73;;;1.15;;
45684;SDS011;46836;48.388;16.210;2023-04-15T14:03:36;1.20;;;1.10;;
45684;SDS011;46836;48.388;16.210;2023-04-15T14:06:04;1.30;;;1.20;;
45684;SDS011;46836;48.388;16.210;2023-04-15T14:08:32;1.50;;;1.40;;
45684;SDS011;46836;48.388;16.210;2023-04-15T14:10:59;1.60;;;1.50;;
45684;SDS011;46836;48.388;16.210;2023-04-15T14:13:26;1.33;;;1.15;;
45684;SDS011;46836;48.388;16.210;2023-04-15T14:15:53;1.23;;;1.20;;
45684;SDS011;46836;48.388;16.210;2023-04-15T14:18:22;2.45;;;2.33;;
45684;SDS011;46836;48.388;16.210;2023-04-15T14:20:49;1.70;;;1.45;;
45684;SDS011;46836;48.388;16.210;2023-04-15T14:23:16;1.27;;;1.20;;
45684;SDS011;46836;48.388;16.210;2023-04-15T14:25:43;1.50;;;1.20;;
45684;SDS011;46836;48.388;16.210;2023-04-15T14:28:13;0.80;;;0.80;;
45684;SDS011;46836;48.388;16.210;2023-04-15T14:30:41;1.85;;;1.30;;
45684;SDS011;46836;48.388;16.210;2023-04-15T14:33:08;1.08;;;0.98;;
45684;SDS011;46836;48.388;16.210;2023-04-15T14:35:35;1.27;;;1.20;;
45684;SDS011;46836;48.388;16.210;2023-04-15T14:38:03;1.55;;;1.30;;
45684;SDS011;46836;48.388;16.210;2023-04-15T14:40:32;1.20;;;1.10;;
45684;SDS011;46836;48.388;16.210;2023-04-15T14:42:59;1.02;;;1.02;;
45684;SDS011;46836;48.388;16.210;2023-04-15T14:45:26;2.58;;;1.10;;
45684;SDS011;46836;48.388;16.210;2023-04-15T14:47:53;0.90;;;0.90;;
45684;SDS011;46836;48.388;16.210;2023-04-15T14:50:21;1.67;;;1.58;;
45684;SDS011;46836;48.388;16.210;2023-04-15T14:52:49;1.60;;;1.10;;
45684;SDS011;46836;48.388;16.210;2023-04-15T14:55:16;1.45;;;1.35;;
45684;SDS011;46836;48.388;16.210;2023-04-15T14:57:44;1.85;;;1.75;;
45684;SDS011;46836;48.388;16.210;2023-04-15T15:00:11;1.77;;;1.40;;
45684;SDS011;46836;48.388;16.210;2023-04-15T15:02:41;1.40;;;1.30;;
45684;SDS011;46836;48.388;16.210;2023-04-15T15:05:09;2.50;;;1.35;;